createdAt,value
2023-01-31T06:01:41.148Z,3.16
2023-01-31T06:04:12.365Z,3.19
2023-01-31T06:06:39.740Z,3.21
2023-01-31T06:09:19.734Z,3.21
2023-01-31T06:11:48.926Z,3.28
2023-01-31T06:14:21.859Z,3.29
2023-01-31T06:16:53.584Z,3.32
2023-01-31T06:19:25.404Z,3.31
2023-01-31T06:21:52.940Z,3.27
2023-01-31T06:24:20.405Z,3.30
2023-01-31T06:26:50.094Z,3.22
2023-01-31T06:29:16.732Z,3.33
2023-01-31T06:31:45.368Z,3.33
2023-01-31T06:34:12.311Z,3.31
2023-01-31T06:36:38.959Z,3.31
2023-01-31T06:39:06.011Z,3.39
2023-01-31T06:41:33.002Z,3.42
2023-01-31T06:43:59.736Z,3.37
2023-01-31T06:46:26.392Z,3.41
2023-01-31T06:48:52.982Z,3.38
2023-01-31T06:51:19.660Z,3.38
2023-01-31T06:53:46.237Z,3.39
2023-01-31T06:56:12.890Z,3.44
2023-01-31T06:58:40.017Z,3.43
2023-01-31T07:01:08.840Z,3.43
2023-01-31T07:03:35.582Z,3.44
2023-01-31T07:06:02.514Z,3.49
2023-01-31T07:08:33.199Z,3.51
2023-01-31T07:11:02.238Z,3.56
2023-01-31T07:13:29.036Z,3.55
2023-01-31T07:15:56.792Z,3.56
2023-01-31T07:18:23.548Z,3.61
2023-01-31T07:20:51.276Z,3.59
2023-01-31T07:23:17.952Z,3.62
2023-01-31T07:25:44.648Z,3.60
2023-01-31T07:28:12.208Z,3.68
2023-01-31T07:30:40.193Z,3.67
2023-01-31T07:33:06.891Z,3.61
2023-01-31T07:35:33.675Z,3.66
2023-01-31T07:38:00.213Z,3.69
2023-01-31T07:40:26.796Z,3.68
2023-01-31T07:42:58.363Z,3.65
2023-01-31T07:45:25.019Z,3.70
2023-01-31T07:47:52.487Z,3.72
2023-01-31T07:50:19.576Z,3.71
2023-01-31T07:52:46.152Z,3.74
2023-01-31T07:55:12.769Z,3.80
2023-01-31T07:57:39.279Z,3.80
2023-01-31T08:00:26.907Z,3.83
2023-01-31T08:03:12.072Z,3.79
2023-01-31T08:05:38.777Z,3.85
2023-01-31T08:08:11.452Z,3.85
2023-01-31T08:10:38.965Z,3.88
2023-01-31T08:13:06.395Z,3.93
2023-01-31T08:15:33.916Z,3.98
2023-01-31T08:18:00.736Z,3.99
2023-01-31T08:20:27.380Z,3.95
2023-01-31T08:22:53.939Z,4.03
2023-01-31T08:25:21.032Z,4.05
2023-01-31T08:27:47.669Z,4.05
2023-01-31T08:30:14.441Z,4.07
2023-01-31T08:32:40.998Z,4.08
2023-01-31T08:35:07.843Z,4.07
2023-01-31T08:37:35.210Z,4.12
2023-01-31T08:40:02.031Z,4.11
2023-01-31T08:42:29.263Z,4.08
2023-01-31T08:44:55.894Z,4.13
2023-01-31T08:47:22.529Z,4.16
2023-01-31T08:49:50.333Z,4.20
2023-01-31T08:52:16.928Z,4.17
2023-01-31T08:54:43.467Z,4.21
2023-01-31T08:57:09.996Z,4.18
2023-01-31T08:59:36.577Z,4.20
2023-01-31T09:02:03.397Z,4.18
2023-01-31T09:04:30.155Z,4.08
2023-01-31T09:06:56.652Z,4.09
2023-01-31T09:09:25.384Z,4.10
2023-01-31T09:11:51.913Z,4.07
2023-01-31T09:14:18.461Z,4.14
2023-01-31T09:16:46.711Z,4.07
2023-01-31T09:19:13.331Z,4.07
2023-01-31T09:21:39.939Z,4.02
2023-01-31T09:24:06.780Z,3.99
2023-01-31T09:26:33.419Z,3.92
2023-01-31T09:29:01.638Z,3.93
2023-01-31T09:31:28.779Z,3.97
2023-01-31T09:33:55.636Z,3.89
2023-01-31T09:36:25.080Z,3.90
2023-01-31T09:38:56.925Z,3.82
2023-01-31T09:41:30.163Z,3.82
2023-01-31T09:44:18.555Z,3.80
2023-01-31T09:46:52.944Z,3.86
2023-01-31T09:49:33.164Z,3.81
2023-01-31T09:52:02.615Z,3.86
2023-01-31T09:54:34.348Z,3.75
2023-01-31T09:57:05.703Z,3.79
2023-01-31T09:59:38.335Z,3.88
2023-01-31T10:02:36.534Z,3.89
2023-01-31T10:05:16.389Z,3.88
2023-01-31T10:07:57.601Z,3.86
2023-01-31T10:10:33.598Z,3.88
2023-01-31T10:13:05.556Z,3.89
2023-01-31T10:15:46.341Z,3.88
2023-01-31T10:18:31.524Z,3.87
2023-01-31T10:21:07.384Z,3.89
2023-01-31T10:23:42.283Z,3.85
2023-01-31T10:26:22.339Z,3.88
2023-01-31T10:29:19.782Z,3.92
2023-01-31T10:31:54.548Z,3.93
2023-01-31T10:34:32.731Z,3.91
2023-01-31T10:37:04.551Z,3.93
2023-01-31T10:39:35.772Z,3.91
2023-01-31T10:42:02.537Z,3.98
2023-01-31T10:44:52.169Z,4.01
2023-01-31T10:47:19.733Z,4.04
2023-01-31T10:49:48.955Z,3.95
2023-01-31T10:52:48.941Z,3.94
2023-01-31T10:55:30.949Z,3.99
2023-01-31T10:57:59.179Z,3.91
2023-01-31T11:00:32.028Z,4.03
2023-01-31T11:02:59.383Z,4.07
2023-01-31T11:05:29.418Z,4.10
2023-01-31T11:08:03.482Z,4.09
2023-01-31T11:10:32.077Z,4.07
2023-01-31T11:13:04.439Z,4.05
2023-01-31T11:15:42.978Z,4.05
2023-01-31T11:18:22.529Z,4.03
2023-01-31T11:20:49.450Z,4.10
2023-01-31T11:23:21.704Z,4.13
2023-01-31T11:25:51.935Z,4.16
2023-01-31T11:28:35.466Z,4.16
2023-01-31T11:31:06.012Z,4.20
2023-01-31T11:33:47.814Z,4.23
2023-01-31T11:36:23.783Z,4.21
2023-01-31T11:38:51.468Z,4.22
2023-01-31T11:41:37.576Z,4.23
2023-01-31T11:44:11.133Z,4.19
2023-01-31T11:46:46.921Z,4.23
2023-01-31T11:49:21.073Z,4.29
2023-01-31T11:51:49.017Z,4.26
2023-01-31T11:54:24.784Z,4.31
2023-01-31T11:56:51.551Z,4.30
2023-01-31T11:59:23.009Z,4.27
2023-01-31T12:01:53.302Z,4.37
2023-01-31T12:04:40.359Z,4.36
2023-01-31T12:07:22.380Z,4.37
2023-01-31T12:09:49.710Z,4.44
2023-01-31T12:12:34.461Z,4.37
2023-01-31T12:15:05.734Z,4.36
2023-01-31T12:17:52.128Z,4.35
2023-01-31T12:20:31.680Z,4.35
2023-01-31T12:23:04.498Z,4.43
2023-01-31T12:25:44.174Z,4.43
2023-01-31T12:28:49.491Z,4.40
2023-01-31T12:31:33.240Z,4.39
2023-01-31T12:34:28.793Z,4.36
2023-01-31T12:37:33.255Z,4.44
2023-01-31T12:40:24.638Z,4.41
2023-01-31T12:43:05.314Z,4.39
2023-01-31T12:45:45.249Z,4.46
2023-01-31T12:48:27.065Z,4.51
2023-01-31T12:51:17.636Z,4.52
2023-01-31T12:54:19.989Z,4.53
2023-01-31T12:57:20.371Z,4.55
2023-01-31T12:59:55.300Z,4.54
2023-01-31T13:02:39.083Z,4.51
2023-01-31T13:05:48.441Z,4.52
2023-01-31T13:08:28.699Z,4.56
2023-01-31T13:11:02.768Z,4.54
2023-01-31T13:13:41.957Z,4.54
2023-01-31T13:16:16.819Z,4.53
2023-01-31T13:18:46.655Z,4.51
2023-01-31T13:21:18.675Z,4.52
2023-01-31T13:23:49.967Z,4.56
2023-01-31T13:26:25.268Z,4.52
2023-01-31T13:29:00.265Z,4.55
2023-01-31T13:31:43.185Z,4.53
2023-01-31T13:34:15.983Z,4.55
2023-01-31T13:36:51.308Z,4.57
2023-01-31T13:39:24.239Z,4.59
2023-01-31T13:41:51.602Z,4.58
2023-01-31T13:44:18.238Z,4.60
2023-01-31T13:46:55.808Z,4.63
2023-01-31T13:49:36.719Z,4.64
2023-01-31T13:52:16.438Z,4.67
2023-01-31T13:54:59.706Z,4.68
2023-01-31T13:57:33.941Z,4.70
2023-01-31T14:00:44.405Z,4.70
2023-01-31T14:03:14.651Z,4.66
2023-01-31T14:05:41.238Z,4.68
2023-01-31T14:08:27.533Z,4.73
2023-01-31T14:10:56.424Z,4.76
2023-01-31T14:13:42.459Z,4.75
2023-01-31T14:16:37.000Z,4.77
2023-01-31T14:19:25.145Z,4.75
2023-01-31T14:22:03.931Z,4.75
2023-01-31T14:24:56.649Z,4.81
2023-01-31T14:27:30.279Z,4.83
2023-01-31T14:30:06.101Z,4.85
2023-01-31T14:33:10.559Z,4.84
2023-01-31T14:36:14.650Z,4.90
2023-01-31T14:39:12.240Z,4.93
2023-01-31T14:41:59.825Z,4.92
2023-01-31T14:44:51.696Z,4.97
2023-01-31T14:47:26.426Z,4.98
2023-01-31T14:50:11.725Z,4.97
2023-01-31T14:53:00.762Z,5.00
2023-01-31T14:55:43.143Z,5.02
2023-01-31T14:58:19.966Z,5.01
2023-01-31T15:00:56.272Z,5.01
2023-01-31T15:03:28.188Z,5.06
2023-01-31T15:06:06.208Z,5.04
2023-01-31T15:08:38.573Z,5.04
2023-01-31T15:11:13.054Z,5.04
2023-01-31T15:13:55.263Z,5.07
2023-01-31T15:16:28.482Z,5.08
2023-01-31T15:19:01.651Z,5.14
2023-01-31T15:21:36.948Z,5.10
2023-01-31T15:24:06.648Z,5.18
2023-01-31T15:26:35.449Z,5.20
2023-01-31T15:29:03.961Z,5.21
2023-01-31T15:31:41.491Z,5.20
2023-01-31T15:34:19.695Z,5.21
2023-01-31T15:36:59.349Z,5.23
2023-01-31T15:39:51.746Z,5.23
2023-01-31T15:42:24.464Z,5.30
2023-01-31T15:44:51.384Z,5.27
2023-01-31T15:47:23.652Z,5.27
2023-01-31T15:49:50.201Z,5.31
2023-01-31T15:52:22.924Z,5.29
2023-01-31T15:54:58.327Z,5.30
2023-01-31T15:57:32.500Z,5.34
2023-01-31T15:59:59.463Z,5.35
2023-01-31T16:02:30.090Z,5.34
2023-01-31T16:04:58.408Z,5.37
2023-01-31T16:07:29.235Z,5.39
2023-01-31T16:09:58.933Z,5.39
2023-01-31T16:12:29.238Z,5.45
2023-01-31T16:14:59.969Z,5.43
2023-01-31T16:17:28.040Z,5.46
2023-01-31T16:19:55.605Z,5.46
2023-01-31T16:22:31.645Z,5.51
2023-01-31T16:25:01.278Z,5.52
2023-01-31T16:27:33.691Z,5.52
2023-01-31T16:30:01.220Z,5.53
2023-01-31T16:32:27.777Z,5.51
2023-01-31T16:35:19.841Z,5.49
2023-01-31T16:37:46.830Z,5.57
2023-01-31T16:40:25.445Z,5.55
2023-01-31T16:43:10.305Z,5.56
2023-01-31T16:45:37.228Z,5.56
2023-01-31T16:48:28.568Z,5.53
2023-01-31T16:50:58.175Z,5.54
2023-01-31T16:53:35.415Z,5.58
2023-01-31T16:56:14.203Z,5.61
2023-01-31T16:58:56.311Z,5.61
2023-01-31T17:01:26.783Z,5.58
2023-01-31T17:04:09.263Z,5.63
2023-01-31T17:06:36.623Z,5.66
2023-01-31T17:09:07.011Z,5.61
2023-01-31T17:11:42.647Z,5.64
2023-01-31T17:14:11.111Z,5.65
2023-01-31T17:16:38.049Z,5.62
2023-01-31T17:19:05.312Z,5.63
2023-01-31T17:21:37.661Z,5.65
2023-01-31T17:24:05.080Z,5.68
2023-01-31T17:26:31.695Z,5.68
2023-01-31T17:29:02.429Z,5.68
2023-01-31T17:31:31.229Z,5.69
2023-01-31T17:33:58.880Z,5.71
2023-01-31T17:36:25.628Z,5.75
2023-01-31T17:38:53.200Z,5.77
2023-01-31T17:41:24.539Z,5.80
2023-01-31T17:43:51.965Z,5.74
2023-01-31T17:46:19.152Z,5.78
2023-01-31T17:48:46.537Z,5.78
2023-01-31T17:51:13.439Z,5.77
2023-01-31T17:53:49.568Z,5.77
2023-01-31T17:56:18.555Z,5.77
2023-01-31T17:58:45.998Z,5.80
2023-01-31T18:01:14.277Z,5.79
2023-01-31T18:03:42.706Z,5.81
2023-01-31T18:06:10.052Z,5.78
2023-01-31T18:08:37.959Z,5.78
2023-01-31T18:11:11.039Z,5.80
2023-01-31T18:13:40.261Z,5.70
2023-01-31T18:16:10.291Z,5.77
2023-01-31T18:18:40.876Z,5.78
2023-01-31T18:21:12.267Z,5.74
2023-01-31T18:23:39.462Z,5.72
2023-01-31T18:26:07.741Z,5.68
2023-01-31T18:28:35.045Z,5.65
2023-01-31T18:31:07.912Z,5.68
2023-01-31T18:33:35.145Z,5.60
2023-01-31T18:36:02.256Z,5.61
2023-01-31T18:38:29.953Z,5.59
2023-01-31T18:40:56.952Z,5.60
2023-01-31T18:43:24.389Z,5.55
2023-01-31T18:45:50.966Z,5.54
2023-01-31T18:48:17.903Z,5.46
2023-01-31T18:50:44.442Z,5.47
2023-01-31T18:53:11.310Z,5.46
2023-01-31T18:55:37.874Z,5.45
2023-01-31T18:58:04.871Z,5.46
2023-01-31T19:00:31.606Z,5.45
2023-01-31T19:02:59.551Z,5.45
2023-01-31T19:05:26.136Z,5.40
2023-01-31T19:07:54.746Z,5.43
2023-01-31T19:10:21.252Z,5.40
2023-01-31T19:12:48.402Z,5.41
2023-01-31T19:15:15.164Z,5.45
2023-01-31T19:17:42.307Z,5.39
2023-01-31T19:20:11.130Z,5.41
2023-01-31T19:22:38.312Z,5.36
2023-01-31T19:25:09.000Z,5.38
2023-01-31T19:27:36.162Z,5.40
2023-01-31T19:30:02.907Z,5.36
2023-01-31T19:32:31.301Z,5.36
2023-01-31T19:34:58.225Z,5.36
2023-01-31T19:37:25.542Z,5.33
2023-01-31T19:39:52.724Z,5.33
2023-01-31T19:42:21.920Z,5.29
2023-01-31T19:44:48.501Z,5.26
2023-01-31T19:47:15.689Z,5.23
2023-01-31T19:49:42.235Z,5.21
2023-01-31T19:52:10.035Z,5.17
2023-01-31T19:54:38.445Z,5.09
2023-01-31T19:57:05.684Z,5.05
2023-01-31T19:59:33.571Z,5.04
2023-01-31T20:02:00.936Z,5.01
2023-01-31T20:04:28.837Z,4.97
2023-01-31T20:06:56.018Z,4.93
2023-01-31T20:09:22.951Z,4.88
2023-01-31T20:11:51.372Z,4.77
2023-01-31T20:14:17.919Z,4.77
2023-01-31T20:16:45.135Z,4.75
2023-01-31T20:19:11.683Z,4.71
2023-01-31T20:21:39.737Z,4.69
2023-01-31T20:24:06.905Z,4.64
2023-01-31T20:26:46.202Z,4.59
2023-01-31T20:29:12.911Z,4.55
2023-01-31T20:31:40.173Z,4.51
2023-01-31T20:34:07.032Z,4.52
2023-01-31T20:36:34.206Z,4.46
2023-01-31T20:39:00.914Z,4.45
2023-01-31T20:41:29.256Z,4.36
2023-01-31T20:43:55.950Z,4.35
2023-01-31T20:46:23.642Z,4.31
2023-01-31T20:48:50.519Z,4.31
2023-01-31T20:51:20.194Z,4.32
2023-01-31T20:53:47.085Z,4.23
2023-01-31T20:56:14.570Z,4.27
2023-01-31T20:58:43.148Z,4.25
2023-01-31T21:01:12.050Z,4.22
2023-01-31T21:03:38.833Z,4.17
2023-01-31T21:06:06.716Z,4.17
2023-01-31T21:08:35.798Z,4.14
2023-01-31T21:11:11.575Z,4.14
2023-01-31T21:13:38.528Z,4.09
2023-01-31T21:16:08.224Z,4.09
2023-01-31T21:18:37.702Z,4.05
2023-01-31T21:21:07.522Z,4.05
2023-01-31T21:23:39.155Z,4.04
2023-01-31T21:26:09.219Z,3.94
2023-01-31T21:28:36.675Z,3.97
